createdAt,value
2019-05-19T00:01:07.121Z,14.20
2019-05-19T00:03:33.814Z,14.30
2019-05-19T00:06:00.510Z,14.20
2019-05-19T00:08:27.252Z,14.10
2019-05-19T00:10:53.963Z,14.00
2019-05-19T00:13:20.655Z,14.00
2019-05-19T00:15:47.693Z,13.90
2019-05-19T00:18:14.504Z,14.00
2019-05-19T00:20:41.581Z,14.10
2019-05-19T00:23:08.257Z,14.10
2019-05-19T00:25:35.030Z,14.10
2019-05-19T00:28:02.316Z,14.10
2019-05-19T00:30:28.997Z,14.10
2019-05-19T00:32:55.704Z,14.10
2019-05-19T00:35:22.730Z,14.20
2019-05-19T00:37:49.641Z,14.20
2019-05-19T00:40:16.471Z,14.20
2019-05-19T00:42:43.400Z,14.20
2019-05-19T00:45:10.279Z,14.10
2019-05-19T00:47:37.379Z,14.20
2019-05-19T00:50:04.456Z,14.30
2019-05-19T00:52:31.332Z,14.50
2019-05-19T00:54:58.540Z,14.60
2019-05-19T00:57:25.837Z,14.40
2019-05-19T00:59:53.718Z,14.20
2019-05-19T01:02:20.409Z,14.10
2019-05-19T01:04:47.188Z,14.20
2019-05-19T01:07:13.900Z,14.40
2019-05-19T01:09:40.909Z,14.30
2019-05-19T01:12:07.636Z,14.40
2019-05-19T01:14:34.887Z,14.30
2019-05-19T01:17:01.623Z,14.20
2019-05-19T01:19:28.657Z,14.20
2019-05-19T01:21:58.647Z,14.20
2019-05-19T01:24:25.443Z,14.20
2019-05-19T01:26:52.166Z,14.10
2019-05-19T01:29:18.956Z,14.10
2019-05-19T01:31:45.812Z,14.00
2019-05-19T01:34:12.800Z,14.00
2019-05-19T01:36:39.500Z,13.90
2019-05-19T01:39:06.551Z,13.80
2019-05-19T01:41:33.548Z,13.70
2019-05-19T01:44:00.645Z,13.60
2019-05-19T01:46:28.044Z,13.50
2019-05-19T01:48:54.733Z,13.40
2019-05-19T01:51:21.432Z,13.40
2019-05-19T01:53:48.176Z,13.40
2019-05-19T01:56:15.072Z,13.30
2019-05-19T01:58:41.759Z,13.30
2019-05-19T02:01:08.696Z,13.30
2019-05-19T02:03:35.384Z,13.10
2019-05-19T02:06:02.183Z,13.00
2019-05-19T02:08:29.004Z,13.00
2019-05-19T02:10:55.697Z,12.90
2019-05-19T02:13:23.120Z,12.80
2019-05-19T02:15:49.939Z,12.80
2019-05-19T02:18:16.648Z,12.90
2019-05-19T02:20:43.669Z,12.90
2019-05-19T02:23:10.444Z,12.90
2019-05-19T02:25:37.169Z,12.90
2019-05-19T02:28:04.597Z,12.90
2019-05-19T02:30:31.737Z,12.90
2019-05-19T02:32:58.476Z,12.80
2019-05-19T02:35:25.423Z,12.70
2019-05-19T02:37:52.346Z,12.70
2019-05-19T02:40:19.393Z,12.70
2019-05-19T02:42:49.138Z,12.80
2019-05-19T02:45:16.062Z,12.90
2019-05-19T02:47:43.875Z,12.90
2019-05-19T02:50:11.393Z,12.90
2019-05-19T02:52:39.640Z,12.90
2019-05-19T02:55:06.653Z,13.00
2019-05-19T02:57:34.868Z,13.00
2019-05-19T03:00:01.887Z,12.90
2019-05-19T03:02:28.601Z,13.10
2019-05-19T03:04:55.529Z,13.00
2019-05-19T03:07:22.231Z,13.00
2019-05-19T03:09:49.233Z,13.10
2019-05-19T03:12:15.936Z,13.20
2019-05-19T03:14:42.671Z,13.20
2019-05-19T03:17:09.645Z,13.30
2019-05-19T03:19:36.907Z,13.40
2019-05-19T03:22:03.712Z,13.20
2019-05-19T03:24:30.502Z,13.30
2019-05-19T03:26:57.212Z,13.20
2019-05-19T03:29:37.550Z,13.20
2019-05-19T03:32:18.268Z,13.30
2019-05-19T03:34:44.966Z,13.30
2019-05-19T03:37:11.794Z,13.20
2019-05-19T03:39:38.531Z,13.20
2019-05-19T03:42:05.253Z,13.20
2019-05-19T03:44:32.073Z,13.10
2019-05-19T03:46:59.228Z,13.10
2019-05-19T03:49:25.939Z,13.20
2019-05-19T03:51:52.921Z,13.10
2019-05-19T03:54:19.980Z,13.00
2019-05-19T03:56:46.679Z,13.10
2019-05-19T03:59:14.057Z,13.10
2019-05-19T04:01:41.120Z,13.10
2019-05-19T04:04:07.810Z,13.10
2019-05-19T04:06:34.787Z,13.10
2019-05-19T04:09:02.850Z,13.10
2019-05-19T04:11:29.839Z,13.00
2019-05-19T04:13:56.956Z,13.10
2019-05-19T04:16:23.759Z,13.20
2019-05-19T04:18:51.524Z,13.20
2019-05-19T04:21:18.321Z,13.30
2019-05-19T04:23:45.356Z,13.30
2019-05-19T04:26:12.144Z,13.30
2019-05-19T04:28:39.138Z,13.30
2019-05-19T04:31:05.856Z,13.30
2019-05-19T04:33:32.585Z,13.30
2019-05-19T04:35:59.612Z,13.40
2019-05-19T04:38:26.371Z,13.40
2019-05-19T04:40:53.411Z,13.50
2019-05-19T04:43:20.239Z,13.40
2019-05-19T04:45:46.943Z,13.50
2019-05-19T04:48:13.641Z,13.60
2019-05-19T04:50:40.340Z,13.60
2019-05-19T04:53:07.162Z,13.70
2019-05-19T04:55:34.117Z,13.80
2019-05-19T04:58:01.225Z,13.90
2019-05-19T05:00:28.366Z,14.00
2019-05-19T05:02:55.090Z,14.10
2019-05-19T05:05:22.408Z,14.20
2019-05-19T05:07:49.152Z,14.30
2019-05-19T05:10:16.504Z,14.50
2019-05-19T05:12:43.196Z,14.50
2019-05-19T05:15:10.236Z,14.70
2019-05-19T05:17:37.063Z,14.90
2019-05-19T05:20:04.163Z,14.90
2019-05-19T05:22:31.142Z,14.60
2019-05-19T05:24:57.980Z,14.70
2019-05-19T05:27:25.075Z,14.50
2019-05-19T05:29:51.793Z,14.60
2019-05-19T05:32:18.781Z,14.70
2019-05-19T05:34:45.508Z,14.80
2019-05-19T05:37:12.304Z,14.80
2019-05-19T05:39:39.105Z,14.90
2019-05-19T05:42:05.888Z,14.70
2019-05-19T05:44:32.576Z,14.80
2019-05-19T05:46:59.563Z,14.70
2019-05-19T05:49:26.625Z,15.20
2019-05-19T05:51:53.864Z,15.50
2019-05-19T05:54:20.600Z,15.80
2019-05-19T05:56:47.642Z,15.90
2019-05-19T05:59:14.363Z,16.20
2019-05-19T06:01:41.072Z,16.20
2019-05-19T06:04:07.785Z,16.00
2019-05-19T06:06:34.513Z,16.30
2019-05-19T06:09:01.233Z,16.40
2019-05-19T06:11:27.932Z,16.20
2019-05-19T06:13:54.698Z,15.90
2019-05-19T06:16:22.231Z,15.90
2019-05-19T06:18:49.248Z,15.80
2019-05-19T06:21:15.973Z,15.60
2019-05-19T06:23:42.972Z,16.00
2019-05-19T06:26:10.609Z,16.10
2019-05-19T06:28:37.849Z,16.10
2019-05-19T06:31:04.693Z,16.20
2019-05-19T06:33:31.492Z,16.20
2019-05-19T06:35:58.204Z,16.20
2019-05-19T06:38:25.052Z,16.40
2019-05-19T06:40:51.784Z,17.00
2019-05-19T06:43:18.754Z,17.40
2019-05-19T06:45:45.809Z,17.20
2019-05-19T06:48:13.489Z,17.10
2019-05-19T06:50:40.931Z,17.70
2019-05-19T06:53:14.055Z,18.50
2019-05-19T06:55:36.524Z,19.30
2019-05-19T06:58:03.269Z,20.80
2019-05-19T07:00:30.300Z,23.30
2019-05-19T07:02:57.420Z,26.00
2019-05-19T07:05:24.184Z,26.90
2019-05-19T07:07:50.934Z,28.40
2019-05-19T07:10:17.817Z,30.10
2019-05-19T07:12:44.604Z,31.40
2019-05-19T07:15:11.823Z,28.70
2019-05-19T07:17:38.635Z,26.20
2019-05-19T07:20:05.741Z,27.60
2019-05-19T07:22:37.316Z,28.90
2019-05-19T07:25:01.864Z,30.60
2019-05-19T07:27:28.844Z,31.30
2019-05-19T07:29:55.536Z,32.50
2019-05-19T07:32:22.749Z,34.90
2019-05-19T07:34:49.701Z,32.10
2019-05-19T07:37:16.580Z,31.90
2019-05-19T07:39:43.524Z,32.50
2019-05-19T07:42:10.712Z,32.30
2019-05-19T07:44:37.730Z,31.50
2019-05-19T07:47:04.621Z,30.90
2019-05-19T07:49:31.344Z,29.80
2019-05-19T07:51:58.051Z,28.70
2019-05-19T07:54:24.876Z,29.40
2019-05-19T07:56:51.633Z,30.20
2019-05-19T07:59:18.644Z,31.40
2019-05-19T08:01:45.388Z,30.40
2019-05-19T08:04:12.181Z,30.70
2019-05-19T08:06:39.049Z,30.80
2019-05-19T08:09:05.877Z,31.40
2019-05-19T08:11:32.872Z,30.50
2019-05-19T08:14:00.211Z,30.10
2019-05-19T08:16:27.037Z,30.00
2019-05-19T08:18:53.732Z,29.90
2019-05-19T08:21:20.699Z,31.40
2019-05-19T08:23:59.939Z,32.20
2019-05-19T08:26:16.136Z,33.90
2019-05-19T08:28:42.908Z,32.40
2019-05-19T08:31:09.965Z,31.70
2019-05-19T08:33:36.986Z,32.00
2019-05-19T08:36:03.695Z,31.10
2019-05-19T08:38:30.711Z,31.30
2019-05-19T08:40:57.909Z,30.80
2019-05-19T08:43:24.791Z,31.00
2019-05-19T08:45:51.778Z,31.80
2019-05-19T08:48:18.785Z,30.70
2019-05-19T08:50:45.513Z,31.30
2019-05-19T08:53:12.206Z,31.80
2019-05-19T08:55:38.940Z,32.50
2019-05-19T08:58:05.838Z,33.60
2019-05-19T09:00:37.614Z,33.60
2019-05-19T09:03:01.250Z,33.40
2019-05-19T09:05:27.968Z,32.10
2019-05-19T09:07:54.697Z,32.00
2019-05-19T09:10:21.588Z,31.20
2019-05-19T09:12:48.295Z,31.60
2019-05-19T09:15:15.348Z,31.10
2019-05-19T09:17:42.040Z,32.40
2019-05-19T09:20:09.324Z,33.70
2019-05-19T09:22:36.140Z,33.80
2019-05-19T09:25:03.739Z,34.00
2019-05-19T09:27:30.434Z,33.80
2019-05-19T09:29:57.166Z,32.70
2019-05-19T09:32:23.846Z,31.40
2019-05-19T09:34:50.866Z,30.40
2019-05-19T09:37:17.575Z,29.70
2019-05-19T09:39:44.279Z,29.10
2019-05-19T09:42:11.707Z,28.80
2019-05-19T09:44:38.436Z,28.20
2019-05-19T09:47:05.444Z,27.80
2019-05-19T09:49:32.765Z,27.00
2019-05-19T09:52:00.660Z,26.80
2019-05-19T09:54:28.307Z,26.50
2019-05-19T09:56:55.126Z,26.60
2019-05-19T09:59:22.069Z,26.20
2019-05-19T10:01:48.892Z,26.30
2019-05-19T10:04:15.688Z,26.40
2019-05-19T10:06:42.668Z,26.40
2019-05-19T10:09:12.738Z,26.40
2019-05-19T10:11:52.788Z,26.40
2019-05-19T10:14:19.654Z,26.60
2019-05-19T10:16:46.451Z,26.20
2019-05-19T10:19:13.159Z,26.10
2019-05-19T10:21:39.869Z,26.60
2019-05-19T10:24:06.588Z,26.70
2019-05-19T10:26:33.322Z,26.40
2019-05-19T10:29:00.331Z,25.90
2019-05-19T10:31:27.076Z,25.90
2019-05-19T10:33:53.998Z,25.30
2019-05-19T10:36:20.866Z,25.30
2019-05-19T10:38:47.590Z,25.40
2019-05-19T10:41:14.338Z,25.30
2019-05-19T10:43:41.140Z,25.40
2019-05-19T10:46:08.371Z,25.40
2019-05-19T10:48:35.623Z,25.30
2019-05-19T10:51:02.691Z,25.00
2019-05-19T10:53:29.392Z,24.80
2019-05-19T10:55:56.396Z,24.60
2019-05-19T10:58:23.110Z,24.50
2019-05-19T11:00:49.900Z,24.30
2019-05-19T11:03:16.625Z,24.30
2019-05-19T11:05:43.419Z,24.30
2019-05-19T11:08:10.142Z,24.50
2019-05-19T11:10:36.828Z,24.50
2019-05-19T11:13:03.550Z,24.60
2019-05-19T11:15:30.370Z,24.70
2019-05-19T11:17:57.064Z,24.80
2019-05-19T11:20:23.826Z,24.90
2019-05-19T11:22:50.972Z,25.10
2019-05-19T11:25:32.678Z,25.30
2019-05-19T11:27:46.516Z,25.40
2019-05-19T11:30:13.421Z,25.30
2019-05-19T11:32:40.148Z,25.20
2019-05-19T11:35:07.493Z,24.10
2019-05-19T11:37:34.653Z,24.10
2019-05-19T11:40:01.657Z,24.20
2019-05-19T11:42:28.526Z,24.30
2019-05-19T11:44:55.223Z,24.20
2019-05-19T11:47:21.950Z,24.20
2019-05-19T11:49:48.637Z,24.10
2019-05-19T11:52:15.333Z,24.10
2019-05-19T11:54:42.070Z,24.10
2019-05-19T11:57:09.016Z,24.40
2019-05-19T11:59:35.701Z,24.70
2019-05-19T12:02:02.525Z,24.80
2019-05-19T12:04:29.228Z,25.20
2019-05-19T12:06:56.017Z,25.30
2019-05-19T12:09:22.839Z,25.50
2019-05-19T12:11:50.249Z,25.60
2019-05-19T12:14:17.076Z,25.60
2019-05-19T12:16:43.791Z,25.80
2019-05-19T12:19:10.784Z,25.80
2019-05-19T12:21:37.512Z,25.80
2019-05-19T12:24:04.213Z,25.70
2019-05-19T12:26:30.929Z,25.80
2019-05-19T12:28:57.612Z,25.90
2019-05-19T12:31:24.313Z,25.80
2019-05-19T12:33:52.409Z,25.80
2019-05-19T12:36:19.524Z,25.80
2019-05-19T12:38:46.212Z,25.80
2019-05-19T12:41:13.037Z,25.50
2019-05-19T12:43:39.859Z,25.50
2019-05-19T12:46:15.693Z,25.70
2019-05-19T12:48:35.768Z,26.10
2019-05-19T12:51:03.291Z,26.20
2019-05-19T12:53:30.288Z,26.10
2019-05-19T12:55:56.996Z,26.00
2019-05-19T12:58:24.062Z,25.90
2019-05-19T13:00:50.888Z,25.80
2019-05-19T13:03:17.958Z,25.70
2019-05-19T13:05:44.650Z,25.70
2019-05-19T13:08:11.780Z,25.70
2019-05-19T13:10:38.742Z,25.70
2019-05-19T13:13:05.564Z,25.80
2019-05-19T13:15:32.693Z,25.90
2019-05-19T13:17:59.376Z,25.90
2019-05-19T13:20:26.644Z,25.80
2019-05-19T13:22:53.446Z,25.90
2019-05-19T13:25:20.392Z,26.20
2019-05-19T13:27:47.461Z,26.20
2019-05-19T13:30:14.520Z,25.90
2019-05-19T13:32:41.236Z,25.70
2019-05-19T13:35:08.657Z,25.70
2019-05-19T13:37:35.340Z,25.80
2019-05-19T13:40:02.400Z,25.60
2019-05-19T13:42:29.704Z,25.40
2019-05-19T13:44:57.030Z,25.10
2019-05-19T13:47:24.055Z,25.00
2019-05-19T13:49:51.208Z,25.30
2019-05-19T13:52:17.954Z,25.20
2019-05-19T13:54:44.943Z,25.20
2019-05-19T13:57:12.825Z,25.40
2019-05-19T13:59:39.767Z,25.40
2019-05-19T14:02:06.785Z,25.30
2019-05-19T14:04:33.902Z,25.30
2019-05-19T14:07:00.708Z,25.50
2019-05-19T14:09:27.751Z,25.50
2019-05-19T14:11:54.749Z,25.40
2019-05-19T14:14:21.441Z,25.40
2019-05-19T14:16:48.174Z,25.40
2019-05-19T14:19:15.539Z,25.50
2019-05-19T14:21:42.508Z,25.60
2019-05-19T14:24:09.193Z,25.30
2019-05-19T14:26:35.913Z,25.10
2019-05-19T14:29:02.724Z,25.00
2019-05-19T14:31:29.428Z,25.00
2019-05-19T14:33:56.796Z,25.10
2019-05-19T14:36:23.585Z,25.40
2019-05-19T14:38:59.820Z,25.40
2019-05-19T14:41:33.474Z,25.40
2019-05-19T14:43:56.441Z,25.40
2019-05-19T14:46:23.132Z,25.40
2019-05-19T14:48:50.144Z,25.10
2019-05-19T14:51:17.148Z,24.80
2019-05-19T14:53:43.842Z,24.60
2019-05-19T14:56:11.194Z,24.50
2019-05-19T14:58:38.124Z,24.60
2019-05-19T15:01:05.000Z,24.40
2019-05-19T15:03:31.955Z,24.30
2019-05-19T15:05:58.664Z,24.10
2019-05-19T15:08:25.384Z,23.80
2019-05-19T15:10:52.358Z,23.60
2019-05-19T15:13:19.201Z,23.50
2019-05-19T15:15:46.186Z,23.40
2019-05-19T15:18:12.968Z,23.30
2019-05-19T15:20:39.694Z,23.10
2019-05-19T15:23:06.673Z,23.10
2019-05-19T15:25:33.369Z,22.90
2019-05-19T15:28:04.868Z,22.80
2019-05-19T15:30:29.233Z,22.70
2019-05-19T15:32:55.960Z,22.60
2019-05-19T15:35:22.955Z,22.60
2019-05-19T15:37:49.992Z,22.50
2019-05-19T15:40:16.885Z,22.30
2019-05-19T15:42:43.573Z,22.20
2019-05-19T15:45:11.152Z,22.20
2019-05-19T15:47:38.182Z,22.00
2019-05-19T15:50:05.331Z,21.90
2019-05-19T15:52:32.034Z,20.80
2019-05-19T15:54:59.099Z,18.40
2019-05-19T15:57:28.608Z,17.30
2019-05-19T15:59:55.262Z,16.90
2019-05-19T16:02:22.027Z,16.90
2019-05-19T16:04:48.796Z,16.70
2019-05-19T16:07:15.624Z,16.60
2019-05-19T16:09:42.353Z,16.80
2019-05-19T16:12:09.058Z,16.80
2019-05-19T16:14:35.794Z,16.70
2019-05-19T16:17:02.608Z,16.60
2019-05-19T16:19:29.714Z,16.40
2019-05-19T16:21:56.752Z,16.30
2019-05-19T16:24:23.485Z,16.20
2019-05-19T16:26:50.184Z,16.20
2019-05-19T16:29:17.159Z,16.40
2019-05-19T16:31:44.091Z,16.20
2019-05-19T16:34:10.788Z,16.20
2019-05-19T16:36:38.108Z,16.40
2019-05-19T16:39:05.747Z,16.60
2019-05-19T16:41:32.665Z,16.90
2019-05-19T16:43:59.364Z,17.10
2019-05-19T16:46:26.161Z,17.40
2019-05-19T16:48:52.935Z,17.50
2019-05-19T16:51:19.638Z,17.60
2019-05-19T16:53:49.294Z,17.80
2019-05-19T16:56:16.052Z,17.90
2019-05-19T16:58:45.138Z,18.20
2019-05-19T17:01:11.372Z,18.20
2019-05-19T17:03:38.111Z,18.40
2019-05-19T17:06:04.949Z,18.80
2019-05-19T17:08:32.213Z,18.80
2019-05-19T17:10:58.934Z,19.10
2019-05-19T17:13:25.622Z,19.50
2019-05-19T17:15:52.501Z,19.40
2019-05-19T17:18:19.244Z,19.90
2019-05-19T17:20:45.945Z,20.00
2019-05-19T17:23:12.649Z,20.10
2019-05-19T17:25:39.595Z,20.30
2019-05-19T17:28:06.416Z,20.20
2019-05-19T17:30:33.595Z,20.40
2019-05-19T17:33:00.513Z,20.40
2019-05-19T17:35:27.249Z,20.20
2019-05-19T17:37:53.968Z,20.10
2019-05-19T17:40:21.176Z,20.30
2019-05-19T17:42:47.996Z,20.10
2019-05-19T17:45:15.226Z,20.10
2019-05-19T17:47:41.913Z,20.10
2019-05-19T17:50:09.245Z,19.90
2019-05-19T17:52:36.067Z,19.60
2019-05-19T17:55:03.396Z,19.40
2019-05-19T17:57:31.736Z,19.20
2019-05-19T17:59:59.056Z,19.00
2019-05-19T18:02:25.800Z,18.90
2019-05-19T18:04:52.786Z,18.60
2019-05-19T18:07:19.881Z,18.50
2019-05-19T18:09:46.930Z,18.20
2019-05-19T18:12:13.720Z,18.10
2019-05-19T18:14:40.728Z,18.00
2019-05-19T18:17:07.596Z,18.00
2019-05-19T18:19:34.430Z,17.90
2019-05-19T18:22:01.512Z,17.80
2019-05-19T18:24:28.347Z,17.70
2019-05-19T18:26:55.070Z,17.70
2019-05-19T18:29:30.997Z,17.50
2019-05-19T18:31:50.687Z,17.40
2019-05-19T18:34:17.476Z,17.40
2019-05-19T18:36:44.196Z,17.40
2019-05-19T18:39:10.887Z,17.30
2019-05-19T18:41:37.931Z,17.20
2019-05-19T18:44:05.096Z,17.10
2019-05-19T18:46:31.838Z,17.00
2019-05-19T18:48:58.573Z,16.90
2019-05-19T18:51:25.317Z,16.80
2019-05-19T18:53:52.070Z,16.80
2019-05-19T18:56:18.787Z,16.70
2019-05-19T18:58:45.532Z,16.60
2019-05-19T19:01:12.664Z,16.70
2019-05-19T19:03:39.680Z,16.50
2019-05-19T19:06:06.704Z,16.40
2019-05-19T19:08:33.471Z,16.30
2019-05-19T19:11:00.164Z,16.10
2019-05-19T19:13:26.891Z,16.00
2019-05-19T19:15:53.576Z,15.80
2019-05-19T19:18:20.288Z,15.60
2019-05-19T19:20:47.295Z,15.50
2019-05-19T19:23:14.287Z,15.50
2019-05-19T19:25:41.076Z,15.50
2019-05-19T19:28:07.804Z,15.50
2019-05-19T19:30:34.847Z,15.40
2019-05-19T19:33:01.638Z,15.30
2019-05-19T19:35:38.246Z,15.40
2019-05-19T19:37:57.217Z,15.40
2019-05-19T19:40:27.717Z,15.30
2019-05-19T19:42:54.800Z,15.30
2019-05-19T19:45:21.560Z,15.30
2019-05-19T19:47:48.303Z,15.40
2019-05-19T19:50:15.091Z,15.30
2019-05-19T19:52:42.097Z,15.30
2019-05-19T19:55:09.708Z,15.20
2019-05-19T19:57:36.553Z,15.20
2019-05-19T20:00:17.152Z,15.30
2019-05-19T20:02:33.138Z,15.20
2019-05-19T20:05:01.214Z,15.20
2019-05-19T20:07:28.210Z,15.40
2019-05-19T20:09:55.224Z,15.60
2019-05-19T20:12:22.036Z,15.60
2019-05-19T20:14:48.998Z,15.60
2019-05-19T20:17:17.121Z,15.60
2019-05-19T20:19:43.811Z,15.60
2019-05-19T20:22:10.526Z,15.70
2019-05-19T20:24:37.240Z,15.60
2019-05-19T20:27:04.424Z,15.50
2019-05-19T20:29:31.126Z,15.50
2019-05-19T20:31:57.867Z,15.50
2019-05-19T20:34:25.221Z,15.50
2019-05-19T20:36:52.002Z,15.60
2019-05-19T20:39:18.697Z,15.50
2019-05-19T20:41:45.409Z,15.40
2019-05-19T20:44:12.128Z,15.40
2019-05-19T20:46:39.056Z,15.40
2019-05-19T20:49:05.820Z,15.40
2019-05-19T20:51:32.844Z,15.30
2019-05-19T20:53:59.552Z,15.40
2019-05-19T20:56:26.789Z,15.40
2019-05-19T20:58:53.498Z,15.30
2019-05-19T21:01:20.240Z,15.30
2019-05-19T21:03:46.972Z,15.30
2019-05-19T21:06:13.915Z,15.10
2019-05-19T21:08:40.711Z,15.10
2019-05-19T21:11:07.450Z,15.10
2019-05-19T21:13:34.466Z,15.10
2019-05-19T21:16:01.268Z,15.10
2019-05-19T21:18:28.114Z,15.10
2019-05-19T21:20:55.218Z,15.20
2019-05-19T21:23:22.237Z,15.20
2019-05-19T21:25:48.964Z,15.20
2019-05-19T21:28:16.007Z,15.20
2019-05-19T21:30:42.698Z,15.20
2019-05-19T21:33:10.016Z,15.20
2019-05-19T21:35:36.731Z,15.00
2019-05-19T21:38:03.429Z,15.00
2019-05-19T21:40:30.506Z,15.00
2019-05-19T21:42:57.209Z,15.00
2019-05-19T21:45:24.282Z,14.90
2019-05-19T21:47:51.214Z,15.00
2019-05-19T21:50:18.033Z,15.10
2019-05-19T21:52:45.060Z,15.10
2019-05-19T21:55:11.757Z,15.20
2019-05-19T21:57:38.482Z,15.20
2019-05-19T22:00:08.116Z,15.00
2019-05-19T22:02:34.956Z,15.10
2019-05-19T22:05:02.070Z,15.10
2019-05-19T22:07:41.843Z,15.00
2019-05-19T22:10:08.845Z,15.00
2019-05-19T22:12:35.912Z,14.90
2019-05-19T22:15:03.097Z,14.80
2019-05-19T22:17:29.801Z,14.80
2019-05-19T22:19:56.492Z,14.70
2019-05-19T22:22:23.210Z,14.60
2019-05-19T22:24:50.008Z,14.70
2019-05-19T22:27:16.998Z,14.60
2019-05-19T22:29:44.055Z,14.60
2019-05-19T22:32:10.775Z,14.60
2019-05-19T22:34:37.491Z,14.70
2019-05-19T22:37:04.331Z,14.60
2019-05-19T22:39:31.144Z,14.60
2019-05-19T22:41:57.853Z,14.70
2019-05-19T22:44:24.849Z,14.70
2019-05-19T22:46:51.964Z,14.70
2019-05-19T22:49:18.715Z,14.70
2019-05-19T22:51:45.436Z,14.70
2019-05-19T22:54:12.148Z,14.80
2019-05-19T22:56:38.880Z,14.90
2019-05-19T22:59:18.900Z,14.80
2019-05-19T23:01:34.352Z,14.80
2019-05-19T23:04:01.984Z,14.70
2019-05-19T23:06:28.706Z,14.60
2019-05-19T23:08:55.685Z,14.50
2019-05-19T23:11:22.638Z,14.40
2019-05-19T23:13:49.434Z,14.40
2019-05-19T23:16:16.258Z,14.40
2019-05-19T23:18:43.688Z,14.40
2019-05-19T23:21:10.497Z,14.50
2019-05-19T23:23:37.229Z,14.40
2019-05-19T23:26:04.028Z,14.40
2019-05-19T23:28:30.760Z,14.40
2019-05-19T23:30:57.458Z,14.40
2019-05-19T23:33:24.197Z,14.30
2019-05-19T23:35:51.227Z,14.30
2019-05-19T23:38:17.967Z,14.30
2019-05-19T23:40:44.663Z,14.30
2019-05-19T23:43:11.700Z,14.30
2019-05-19T23:45:38.420Z,14.20
2019-05-19T23:48:05.160Z,14.20
2019-05-19T23:50:32.173Z,14.30
2019-05-19T23:52:58.896Z,14.30
2019-05-19T23:55:25.580Z,14.20
2019-05-19T23:57:52.320Z,14.30
